createdAt,value
2019-02-18T00:01:10.034Z,19.20
2019-02-18T00:03:40.791Z,22.98
2019-02-18T00:06:11.566Z,22.27
2019-02-18T00:08:42.317Z,17.20
2019-02-18T00:11:13.086Z,19.70
2019-02-18T00:13:44.517Z,18.50
2019-02-18T00:16:15.290Z,19.48
2019-02-18T00:18:46.035Z,19.10
2019-02-18T00:21:16.817Z,24.07
2019-02-18T00:23:50.716Z,20.53
2019-02-18T00:26:21.491Z,18.60
2019-02-18T00:28:52.274Z,22.30
2019-02-18T00:31:23.043Z,19.57
2019-02-18T00:33:53.796Z,22.30
2019-02-18T00:36:24.573Z,16.43
2019-02-18T00:38:55.729Z,19.20
2019-02-18T00:41:26.506Z,18.05
2019-02-18T00:43:57.294Z,21.33
2019-02-18T00:46:28.052Z,23.37
2019-02-18T00:48:58.809Z,20.73
2019-02-18T00:51:29.596Z,23.43
2019-02-18T00:54:00.338Z,20.60
2019-02-18T00:56:31.262Z,21.00
2019-02-18T00:59:02.027Z,24.77
2019-02-18T01:01:32.827Z,27.07
2019-02-18T01:04:03.558Z,25.67
2019-02-18T01:06:34.324Z,19.30
2019-02-18T01:09:05.384Z,25.33
2019-02-18T01:11:36.265Z,20.50
2019-02-18T01:14:07.046Z,24.70
2019-02-18T01:16:37.827Z,24.57
2019-02-18T01:19:08.706Z,21.60
2019-02-18T01:21:39.485Z,23.73
2019-02-18T01:24:10.244Z,22.20
2019-02-18T01:26:41.142Z,23.50
2019-02-18T01:29:12.233Z,21.13
2019-02-18T01:31:43.023Z,21.17
2019-02-18T01:34:13.825Z,21.67
2019-02-18T01:36:44.566Z,20.80
2019-02-18T01:39:15.322Z,20.40
2019-02-18T01:41:46.090Z,23.60
2019-02-18T01:44:16.848Z,18.93
2019-02-18T01:46:47.687Z,21.47
2019-02-18T01:49:18.431Z,19.47
2019-02-18T01:51:49.250Z,16.17
2019-02-18T01:54:19.995Z,18.70
2019-02-18T01:56:50.773Z,19.90
2019-02-18T01:59:21.529Z,18.20
2019-02-18T02:01:52.299Z,23.37
2019-02-18T02:04:23.060Z,18.47
2019-02-18T02:06:54.130Z,16.70
2019-02-18T02:09:25.045Z,22.00
2019-02-18T02:11:55.783Z,20.10
2019-02-18T02:14:28.460Z,20.97
2019-02-18T02:16:59.239Z,17.52
2019-02-18T02:19:29.993Z,20.43
2019-02-18T02:22:00.839Z,19.50
2019-02-18T02:24:31.590Z,21.00
2019-02-18T02:27:02.368Z,18.73
2019-02-18T02:29:33.145Z,17.70
2019-02-18T02:32:03.951Z,17.47
2019-02-18T02:34:34.704Z,17.90
2019-02-18T02:37:05.834Z,14.10
2019-02-18T02:39:36.594Z,17.02
2019-02-18T02:42:07.370Z,22.00
2019-02-18T02:44:38.128Z,14.50
2019-02-18T02:47:08.927Z,18.93
2019-02-18T02:49:39.654Z,16.60
2019-02-18T02:52:10.438Z,16.97
2019-02-18T02:54:41.204Z,14.40
2019-02-18T02:57:11.985Z,13.60
2019-02-18T02:59:42.771Z,15.67
2019-02-18T03:02:13.560Z,17.90
2019-02-18T03:04:44.325Z,20.77
2019-02-18T03:07:15.094Z,14.60
2019-02-18T03:09:46.040Z,17.43
2019-02-18T03:12:16.752Z,17.00
2019-02-18T03:14:47.508Z,19.50
2019-02-18T03:17:18.287Z,16.87
2019-02-18T03:19:49.064Z,14.07
2019-02-18T03:22:19.822Z,12.87
2019-02-18T03:25:15.837Z,14.57
2019-02-18T03:27:51.124Z,17.60
2019-02-18T03:30:31.762Z,14.53
2019-02-18T03:33:05.062Z,15.10
2019-02-18T03:35:35.830Z,13.08
2019-02-18T03:38:06.633Z,14.47
2019-02-18T03:40:37.408Z,15.80
2019-02-18T03:43:08.429Z,17.20
2019-02-18T03:45:39.204Z,16.17
2019-02-18T03:48:09.990Z,12.77
2019-02-18T03:50:41.782Z,17.47
2019-02-18T03:53:12.550Z,19.12
2019-02-18T03:55:43.468Z,14.23
2019-02-18T03:58:15.265Z,14.57
2019-02-18T04:00:46.068Z,15.23
2019-02-18T04:03:19.073Z,15.60
2019-02-18T04:05:50.004Z,13.35
2019-02-18T04:08:20.766Z,14.03
2019-02-18T04:10:51.522Z,12.63
2019-02-18T04:13:22.320Z,14.93
2019-02-18T04:15:53.077Z,13.57
2019-02-18T04:18:23.916Z,13.37
2019-02-18T04:20:58.040Z,13.27
2019-02-18T04:23:28.816Z,11.38
2019-02-18T04:25:59.569Z,12.70
2019-02-18T04:28:30.392Z,12.90
2019-02-18T04:31:01.107Z,11.87
2019-02-18T04:33:31.884Z,13.20
2019-02-18T04:36:02.715Z,11.23
2019-02-18T04:38:33.475Z,12.70
2019-02-18T04:41:04.265Z,14.90
2019-02-18T04:43:35.026Z,11.80
2019-02-18T04:46:05.794Z,13.87
2019-02-18T04:48:36.549Z,10.63
2019-02-18T04:51:07.330Z,15.30
2019-02-18T04:53:38.103Z,10.20
2019-02-18T04:56:08.890Z,12.93
2019-02-18T04:58:39.632Z,14.40
2019-02-18T05:01:10.475Z,10.87
2019-02-18T05:03:41.238Z,15.20
2019-02-18T05:06:12.012Z,13.23
2019-02-18T05:08:42.772Z,14.23
2019-02-18T05:11:13.538Z,16.90
2019-02-18T05:13:45.973Z,13.27
2019-02-18T05:16:16.875Z,17.17
2019-02-18T05:18:47.628Z,18.50
2019-02-18T05:21:18.417Z,13.50
2019-02-18T05:23:49.180Z,13.40
2019-02-18T05:26:19.949Z,17.03
2019-02-18T05:28:50.708Z,15.30
2019-02-18T05:31:21.476Z,15.90
2019-02-18T05:33:52.233Z,18.37
2019-02-18T05:36:23.052Z,14.67
2019-02-18T05:38:53.759Z,18.57
2019-02-18T05:41:24.528Z,12.70
2019-02-18T05:44:10.493Z,14.73
2019-02-18T05:46:41.310Z,15.65
2019-02-18T05:49:12.075Z,13.40
2019-02-18T05:51:42.883Z,15.93
2019-02-18T05:54:13.654Z,18.77
2019-02-18T05:56:44.449Z,17.57
2019-02-18T05:59:15.215Z,13.53
2019-02-18T06:01:46.006Z,18.20
2019-02-18T06:04:24.003Z,16.97
2019-02-18T06:06:54.816Z,18.98
2019-02-18T06:09:29.696Z,17.83
2019-02-18T06:11:58.253Z,18.42
2019-02-18T06:14:29.026Z,15.47
2019-02-18T06:16:59.792Z,15.73
2019-02-18T06:19:30.559Z,18.63
2019-02-18T06:22:01.351Z,20.43
2019-02-18T06:24:32.120Z,23.70
2019-02-18T06:27:02.890Z,17.43
2019-02-18T06:29:33.667Z,18.80
2019-02-18T06:32:04.435Z,20.17
2019-02-18T06:34:35.211Z,17.40
2019-02-18T06:37:06.001Z,19.07
2019-02-18T06:39:41.294Z,19.90
2019-02-18T06:42:11.145Z,17.95
2019-02-18T06:44:44.066Z,18.17
2019-02-18T06:47:15.794Z,19.10
2019-02-18T06:49:46.565Z,20.17
2019-02-18T06:52:17.699Z,20.60
2019-02-18T06:54:48.459Z,22.55
2019-02-18T06:57:21.140Z,20.50
2019-02-18T06:59:52.815Z,23.83
2019-02-18T07:02:25.543Z,21.85
2019-02-18T07:05:07.047Z,16.05
2019-02-18T07:07:56.539Z,17.07
2019-02-18T07:10:29.226Z,15.30
2019-02-18T07:12:59.990Z,16.85
2019-02-18T07:15:30.762Z,16.30
2019-02-18T07:18:01.805Z,18.87
2019-02-18T07:20:32.631Z,18.12
2019-02-18T07:23:03.401Z,18.73
2019-02-18T07:25:34.167Z,18.90
2019-02-18T07:28:04.951Z,15.60
2019-02-18T07:30:35.729Z,22.80
2019-02-18T07:33:06.503Z,21.67
2019-02-18T07:35:37.281Z,20.23
2019-02-18T07:38:08.074Z,17.70
2019-02-18T07:40:38.833Z,19.63
2019-02-18T07:43:09.666Z,20.00
2019-02-18T07:45:40.443Z,22.17
2019-02-18T07:48:11.271Z,21.63
2019-02-18T07:50:42.038Z,19.90
2019-02-18T07:53:12.827Z,20.33
2019-02-18T07:55:43.598Z,19.80
2019-02-18T07:58:14.382Z,20.40
2019-02-18T08:00:45.136Z,21.10
2019-02-18T08:03:16.955Z,20.87
2019-02-18T08:05:47.745Z,18.37
2019-02-18T08:08:18.548Z,20.17
2019-02-18T08:10:49.332Z,23.30
2019-02-18T08:13:20.099Z,28.33
2019-02-18T08:15:50.857Z,27.20
2019-02-18T08:18:21.639Z,32.50
2019-02-18T08:20:52.396Z,23.93
2019-02-18T08:23:23.183Z,25.10
2019-02-18T08:25:53.959Z,20.60
2019-02-18T08:28:24.742Z,21.20
2019-02-18T08:30:55.512Z,22.30
2019-02-18T08:33:26.296Z,18.53
2019-02-18T08:35:57.061Z,19.17
2019-02-18T08:38:27.867Z,17.37
2019-02-18T08:40:58.628Z,19.17
2019-02-18T08:43:29.523Z,23.93
2019-02-18T08:46:00.310Z,19.10
2019-02-18T08:48:31.088Z,19.30
2019-02-18T08:51:01.877Z,18.33
2019-02-18T08:53:32.770Z,21.70
2019-02-18T08:56:03.601Z,22.67
2019-02-18T08:58:34.371Z,16.80
2019-02-18T09:01:05.138Z,17.10
2019-02-18T09:03:35.914Z,15.70
2019-02-18T09:06:06.685Z,19.43
2019-02-18T09:08:37.456Z,18.07
2019-02-18T09:11:08.236Z,15.87
2019-02-18T09:13:39.044Z,18.17
2019-02-18T09:16:09.820Z,15.23
2019-02-18T09:18:40.607Z,17.00
2019-02-18T09:21:11.376Z,16.33
2019-02-18T09:23:44.069Z,17.93
2019-02-18T09:26:15.949Z,18.07
2019-02-18T09:28:46.781Z,17.85
2019-02-18T09:31:19.459Z,16.20
2019-02-18T09:33:50.271Z,16.45
2019-02-18T09:36:21.547Z,17.60
2019-02-18T09:38:52.382Z,15.60
2019-02-18T09:41:23.139Z,17.77
2019-02-18T09:43:53.941Z,18.53
2019-02-18T09:46:24.700Z,19.67
2019-02-18T09:48:55.546Z,15.23
2019-02-18T09:51:26.335Z,16.23
2019-02-18T09:53:57.098Z,16.30
2019-02-18T09:56:27.861Z,18.13
2019-02-18T09:58:58.642Z,15.70
2019-02-18T10:01:29.421Z,16.37
2019-02-18T10:04:00.196Z,15.67
2019-02-18T10:06:30.977Z,17.70
2019-02-18T10:09:02.051Z,17.70
2019-02-18T10:11:32.836Z,18.60
2019-02-18T10:14:03.615Z,16.90
2019-02-18T10:16:34.384Z,17.00
2019-02-18T10:19:05.150Z,20.03
2019-02-18T10:21:35.920Z,18.50
2019-02-18T10:24:06.714Z,16.17
2019-02-18T10:26:37.495Z,18.83
2019-02-18T10:29:08.297Z,13.53
2019-02-18T10:31:39.066Z,16.63
2019-02-18T10:34:09.846Z,15.60
2019-02-18T10:36:40.623Z,14.03
2019-02-18T10:39:11.499Z,18.33
2019-02-18T10:41:42.288Z,17.30
2019-02-18T10:44:13.361Z,13.60
2019-02-18T10:46:44.174Z,13.20
2019-02-18T10:49:19.749Z,16.80
2019-02-18T10:51:47.649Z,14.45
2019-02-18T10:54:18.452Z,14.90
2019-02-18T10:56:49.260Z,12.93
2019-02-18T10:59:20.039Z,13.37
2019-02-18T11:01:50.824Z,14.73
2019-02-18T11:04:21.605Z,14.47
2019-02-18T11:06:52.498Z,13.60
2019-02-18T11:09:23.270Z,15.97
2019-02-18T11:11:54.046Z,15.43
2019-02-18T11:14:24.920Z,17.13
2019-02-18T11:16:55.973Z,14.60
2019-02-18T11:19:26.855Z,13.15
2019-02-18T11:21:57.625Z,11.97
2019-02-18T11:24:28.468Z,16.30
2019-02-18T11:26:59.413Z,12.90
2019-02-18T11:29:30.265Z,12.67
2019-02-18T11:32:01.094Z,15.87
2019-02-18T11:34:31.881Z,12.30
2019-02-18T11:37:02.653Z,10.83
2019-02-18T11:39:33.507Z,10.03
2019-02-18T11:42:04.342Z,9.57
2019-02-18T11:44:35.200Z,11.03
2019-02-18T11:47:05.998Z,9.40
2019-02-18T11:49:36.772Z,9.80
2019-02-18T11:52:07.572Z,10.63
2019-02-18T11:54:38.331Z,10.53
2019-02-18T11:57:09.111Z,12.73
2019-02-18T11:59:39.893Z,10.90
2019-02-18T12:02:10.727Z,9.77
2019-02-18T12:04:41.719Z,9.40
2019-02-18T12:07:12.615Z,10.23
2019-02-18T12:09:43.388Z,11.87
2019-02-18T12:12:14.258Z,8.93
2019-02-18T12:14:45.090Z,9.87
2019-02-18T12:17:20.625Z,7.90
2019-02-18T12:20:43.991Z,9.97
2019-02-18T12:23:14.767Z,10.40
2019-02-18T12:25:45.530Z,8.07
2019-02-18T12:28:16.311Z,7.97
2019-02-18T12:30:47.081Z,9.10
2019-02-18T12:33:19.946Z,9.90
2019-02-18T12:35:50.712Z,10.37
2019-02-18T12:38:21.486Z,9.10
2019-02-18T12:40:52.427Z,11.70
2019-02-18T12:43:23.232Z,10.53
2019-02-18T12:45:54.021Z,12.10
2019-02-18T12:48:24.904Z,9.87
2019-02-18T12:50:55.697Z,9.87
2019-02-18T12:53:26.473Z,9.93
2019-02-18T12:55:57.350Z,9.43
2019-02-18T12:58:28.200Z,11.53
2019-02-18T13:00:59.033Z,14.20
2019-02-18T13:03:29.934Z,10.57
2019-02-18T13:06:00.725Z,11.40
2019-02-18T13:08:31.526Z,9.83
2019-02-18T13:11:02.302Z,11.57
2019-02-18T13:13:33.196Z,11.93
2019-02-18T13:16:03.955Z,11.87
2019-02-18T13:18:35.040Z,10.40
2019-02-18T13:21:05.812Z,11.90
2019-02-18T13:23:36.593Z,10.23
2019-02-18T13:26:07.374Z,10.57
2019-02-18T13:28:38.146Z,10.63
2019-02-18T13:31:08.917Z,12.73
2019-02-18T13:33:39.689Z,11.03
2019-02-18T13:36:12.769Z,9.90
2019-02-18T13:38:43.546Z,9.50
2019-02-18T13:41:14.307Z,9.17
2019-02-18T13:43:45.105Z,9.30
2019-02-18T13:46:16.080Z,9.13
2019-02-18T13:48:46.850Z,8.63
2019-02-18T13:51:24.111Z,8.90
2019-02-18T13:53:50.585Z,8.90
2019-02-18T13:56:21.352Z,8.90
2019-02-18T13:58:52.528Z,8.77
2019-02-18T14:01:23.293Z,10.33
2019-02-18T14:03:54.058Z,9.03
2019-02-18T14:06:24.837Z,10.83
2019-02-18T14:08:55.604Z,9.87
2019-02-18T14:11:26.773Z,8.83
2019-02-18T14:13:57.575Z,9.60
2019-02-18T14:16:28.333Z,9.13
2019-02-18T14:18:59.157Z,7.03
2019-02-18T14:21:29.879Z,8.10
2019-02-18T14:24:00.660Z,7.47
2019-02-18T14:26:31.423Z,7.07
2019-02-18T14:29:02.190Z,7.43
2019-02-18T14:31:32.957Z,8.00
2019-02-18T14:34:03.728Z,9.47
2019-02-18T14:36:34.484Z,9.50
2019-02-18T14:39:08.383Z,10.73
2019-02-18T14:41:39.143Z,7.70
2019-02-18T14:44:10.429Z,6.73
2019-02-18T14:46:41.201Z,8.80
2019-02-18T14:49:11.966Z,7.90
2019-02-18T14:51:42.836Z,9.93
2019-02-18T14:54:13.627Z,10.33
2019-02-18T14:56:44.402Z,8.33
2019-02-18T14:59:15.225Z,7.97
2019-02-18T15:01:46.075Z,8.23
2019-02-18T15:04:17.264Z,8.47
2019-02-18T15:06:48.054Z,8.73
2019-02-18T15:09:18.948Z,8.93
2019-02-18T15:11:49.706Z,8.43
2019-02-18T15:14:20.695Z,8.70
2019-02-18T15:16:51.475Z,11.43
2019-02-18T15:19:22.247Z,14.20
2019-02-18T15:22:01.089Z,9.80
2019-02-18T15:24:31.865Z,11.00
2019-02-18T15:27:02.836Z,11.43
2019-02-18T15:29:34.088Z,10.47
2019-02-18T15:32:05.169Z,9.57
2019-02-18T15:34:35.956Z,13.20
2019-02-18T15:37:06.719Z,11.33
2019-02-18T15:39:37.510Z,13.20
2019-02-18T15:42:08.679Z,15.03
2019-02-18T15:44:39.452Z,10.23
2019-02-18T15:47:10.222Z,12.40
2019-02-18T15:49:40.989Z,10.20
2019-02-18T15:52:15.089Z,11.70
2019-02-18T15:54:46.250Z,10.30
2019-02-18T15:57:17.023Z,10.30
2019-02-18T15:59:47.853Z,10.67
2019-02-18T16:02:18.630Z,11.07
2019-02-18T16:04:49.397Z,11.87
2019-02-18T16:07:20.201Z,12.67
2019-02-18T16:09:51.006Z,12.57
2019-02-18T16:12:21.870Z,11.53
2019-02-18T16:14:52.656Z,16.20
2019-02-18T16:17:23.471Z,14.00
2019-02-18T16:19:54.234Z,10.33
2019-02-18T16:22:25.429Z,13.50
2019-02-18T16:24:56.382Z,15.57
2019-02-18T16:27:27.151Z,14.17
2019-02-18T16:29:58.226Z,15.27
2019-02-18T16:32:28.997Z,17.07
2019-02-18T16:34:59.906Z,19.37
2019-02-18T16:37:31.147Z,17.30
2019-02-18T16:40:04.718Z,13.07
2019-02-18T16:42:35.650Z,16.17
2019-02-18T16:45:09.697Z,17.65
2019-02-18T16:47:40.585Z,16.75
2019-02-18T16:50:11.598Z,25.43
2019-02-18T16:52:42.408Z,19.07
2019-02-18T16:55:14.341Z,16.50
2019-02-18T16:57:45.287Z,15.68
2019-02-18T17:00:28.004Z,14.73
2019-02-18T17:02:58.996Z,12.82
2019-02-18T17:05:29.770Z,12.57
2019-02-18T17:08:00.588Z,13.03
2019-02-18T17:13:38.180Z,14.35
2019-02-18T17:16:09.003Z,14.25
2019-02-18T17:18:39.761Z,15.63
2019-02-18T17:21:10.793Z,16.70
2019-02-18T17:23:41.561Z,14.30
2019-02-18T17:26:18.137Z,13.80
2019-02-18T17:28:48.896Z,17.75
2019-02-18T17:31:19.672Z,13.70
2019-02-18T17:33:50.431Z,18.30
2019-02-18T17:36:21.222Z,15.40
2019-02-18T17:38:52.208Z,14.63
2019-02-18T17:41:23.225Z,16.13
2019-02-18T17:43:54.384Z,23.20
2019-02-18T17:46:25.273Z,16.10
2019-02-18T17:48:56.271Z,16.03
2019-02-18T17:51:27.052Z,17.82
2019-02-18T17:53:58.120Z,17.27
2019-02-18T17:56:28.919Z,15.15
2019-02-18T17:58:59.748Z,19.33
2019-02-18T18:01:30.607Z,17.83
2019-02-18T18:04:01.372Z,14.27
2019-02-18T18:06:32.140Z,18.00
2019-02-18T18:09:05.427Z,15.07
2019-02-18T18:11:36.204Z,16.37
2019-02-18T18:14:06.959Z,17.30
2019-02-18T18:16:37.729Z,15.27
2019-02-18T18:19:09.542Z,18.50
2019-02-18T18:21:40.492Z,20.62
2019-02-18T18:24:11.247Z,22.97
2019-02-18T18:26:42.241Z,17.63
2019-02-18T18:29:13.013Z,19.85
2019-02-18T18:31:43.779Z,22.03
2019-02-18T18:34:14.804Z,16.47
2019-02-18T18:36:45.972Z,23.32
2019-02-18T18:39:16.905Z,23.27
2019-02-18T18:41:48.607Z,23.03
2019-02-18T18:44:19.413Z,24.70
2019-02-18T18:46:50.174Z,22.60
2019-02-18T18:49:21.237Z,20.97
2019-02-18T18:51:52.159Z,29.90
2019-02-18T18:54:22.916Z,20.60
2019-02-18T18:56:53.812Z,24.97
2019-02-18T18:59:24.804Z,18.17
2019-02-18T19:01:55.895Z,16.80
2019-02-18T19:04:26.694Z,18.03
2019-02-18T19:06:57.476Z,21.83
2019-02-18T19:09:28.231Z,18.17
2019-02-18T19:11:59.004Z,17.83
2019-02-18T19:14:30.174Z,20.25
2019-02-18T19:17:01.739Z,17.53
2019-02-18T19:19:32.616Z,18.48
2019-02-18T19:22:03.499Z,18.27
2019-02-18T19:24:34.252Z,19.77
2019-02-18T19:27:05.326Z,16.77
2019-02-18T19:29:36.092Z,17.70
2019-02-18T19:32:06.863Z,17.20
2019-02-18T19:34:37.626Z,22.43
2019-02-18T19:37:08.394Z,17.20
2019-02-18T19:39:39.562Z,19.62
2019-02-18T19:42:10.332Z,16.73
2019-02-18T19:44:41.092Z,15.90
2019-02-18T19:47:11.882Z,16.27
2019-02-18T19:49:42.653Z,18.27
2019-02-18T19:52:13.458Z,18.47
2019-02-18T19:54:44.219Z,15.30
2019-02-18T19:57:14.991Z,16.00
2019-02-18T19:59:45.756Z,16.20
2019-02-18T20:02:16.534Z,15.27
2019-02-18T20:04:47.297Z,18.03
2019-02-18T20:07:18.070Z,17.77
2019-02-18T20:09:48.828Z,20.10
2019-02-18T20:12:19.767Z,19.23
2019-02-18T20:14:50.527Z,18.43
2019-02-18T20:17:21.295Z,17.40
2019-02-18T20:19:52.067Z,17.73
2019-02-18T20:22:22.823Z,16.30
2019-02-18T20:24:53.598Z,16.70
2019-02-18T20:27:24.357Z,21.50
2019-02-18T20:29:55.139Z,20.43
2019-02-18T20:32:26.210Z,18.15
2019-02-18T20:34:57.393Z,18.87
2019-02-18T20:37:28.123Z,17.07
2019-02-18T20:39:58.968Z,26.33
2019-02-18T20:42:32.229Z,21.13
2019-02-18T20:45:06.669Z,23.80
2019-02-18T20:47:37.441Z,22.40
2019-02-18T20:50:10.013Z,20.90
2019-02-18T20:52:40.809Z,21.12
2019-02-18T20:55:12.884Z,22.80
2019-02-18T20:57:43.648Z,22.60
2019-02-18T21:00:18.963Z,24.47
2019-02-18T21:02:49.724Z,21.85
2019-02-18T21:05:20.501Z,23.23
2019-02-18T21:07:51.269Z,28.47
2019-02-18T21:10:23.965Z,20.30
2019-02-18T21:12:54.724Z,25.25
2019-02-18T21:15:25.775Z,29.50
2019-02-18T21:17:56.536Z,26.12
2019-02-18T21:20:27.307Z,30.33
2019-02-18T21:22:58.067Z,19.27
2019-02-18T21:25:28.862Z,23.70
2019-02-18T21:27:59.600Z,21.93
2019-02-18T21:30:30.375Z,18.87
2019-02-18T21:33:01.211Z,26.30
2019-02-18T21:35:32.264Z,18.67
2019-02-18T21:38:03.035Z,20.27
2019-02-18T21:40:33.820Z,16.10
2019-02-18T21:43:04.605Z,21.50
2019-02-18T21:45:35.419Z,19.60
2019-02-18T21:48:06.480Z,19.00
2019-02-18T21:50:37.414Z,21.10
2019-02-18T21:53:08.549Z,20.90
2019-02-18T21:55:39.323Z,17.50
2019-02-18T21:58:10.251Z,17.20
2019-02-18T22:00:41.329Z,21.48
2019-02-18T22:03:12.355Z,19.93
2019-02-18T22:05:43.517Z,19.35
2019-02-18T22:08:14.288Z,19.48
2019-02-18T22:10:45.056Z,21.47
2019-02-18T22:13:15.829Z,24.80
2019-02-18T22:15:46.683Z,20.00
2019-02-18T22:18:17.456Z,20.10
2019-02-18T22:20:48.266Z,20.13
2019-02-18T22:23:19.042Z,22.17
2019-02-18T22:25:51.405Z,22.23
2019-02-18T22:28:22.517Z,16.10
2019-02-18T22:30:53.332Z,22.90
2019-02-18T22:33:24.101Z,18.07
2019-02-18T22:35:54.888Z,22.73
2019-02-18T22:38:25.653Z,16.77
2019-02-18T22:40:56.922Z,15.87
2019-02-18T22:43:27.693Z,19.00
2019-02-18T22:45:58.462Z,19.00
2019-02-18T22:48:29.228Z,21.63
2019-02-18T22:51:00.005Z,21.57
2019-02-18T22:53:30.783Z,18.60
2019-02-18T22:56:02.014Z,19.07
2019-02-18T22:58:32.847Z,17.10
2019-02-18T23:01:04.142Z,18.90
2019-02-18T23:03:34.956Z,16.80
2019-02-18T23:06:05.689Z,20.10
2019-02-18T23:08:36.452Z,18.00
2019-02-18T23:11:07.235Z,16.13
2019-02-18T23:13:38.010Z,16.90
2019-02-18T23:16:08.809Z,18.23
2019-02-18T23:18:39.592Z,19.03
2019-02-18T23:21:10.850Z,18.17
2019-02-18T23:23:42.023Z,19.75
2019-02-18T23:26:12.941Z,16.80
2019-02-18T23:28:43.699Z,18.17
2019-02-18T23:31:14.689Z,18.70
2019-02-18T23:33:45.457Z,19.90
2019-02-18T23:36:16.218Z,16.70
2019-02-18T23:38:46.982Z,16.37
2019-02-18T23:41:17.741Z,19.10
2019-02-18T23:43:48.511Z,18.53
2019-02-18T23:46:19.272Z,15.43
2019-02-18T23:48:50.031Z,16.70
2019-02-18T23:51:20.799Z,19.03
2019-02-18T23:53:52.603Z,17.10
2019-02-18T23:56:23.366Z,19.37
2019-02-18T23:58:54.147Z,16.83
